createdAt,value
2022-09-20T00:01:37.407Z,101795.13
2022-09-20T00:04:14.418Z,101797.69
2022-09-20T00:06:42.555Z,101795.94
2022-09-20T00:09:16.130Z,101809.13
2022-09-20T00:11:48.569Z,101803.84
2022-09-20T00:14:16.442Z,101809.03
2022-09-20T00:16:49.252Z,101789.50
2022-09-20T00:19:22.480Z,101799.28
2022-09-20T00:21:50.213Z,101797.41
2022-09-20T00:24:17.817Z,101799.97
2022-09-20T00:26:45.221Z,101779.69
2022-09-20T00:29:14.061Z,101793.84
2022-09-20T00:31:43.354Z,101802.59
2022-09-20T00:34:30.412Z,101801.66
2022-09-20T00:36:58.112Z,101794.59
2022-09-20T00:39:25.646Z,101797.94
2022-09-20T00:41:53.201Z,101788.09
2022-09-20T00:44:45.905Z,101802.25
2022-09-20T00:47:20.635Z,101799.47
2022-09-20T00:49:48.839Z,101806.47
2022-09-20T00:52:17.190Z,101797.75
2022-09-20T00:54:44.971Z,101797.75
2022-09-20T00:57:12.983Z,101796.81
2022-09-20T00:59:44.481Z,101803.69
2022-09-20T01:02:20.257Z,101799.28
2022-09-20T01:04:48.973Z,101798.31
2022-09-20T01:07:22.665Z,101785.84
2022-09-20T01:09:50.934Z,101800.59
2022-09-20T01:12:26.434Z,101797.03
2022-09-20T01:14:58.376Z,101804.03
2022-09-20T01:17:28.739Z,101786.31
2022-09-20T01:20:11.248Z,101795.97
2022-09-20T01:23:13.307Z,101793.28
2022-09-20T01:26:08.134Z,101792.25
2022-09-20T01:28:40.527Z,101788.69
2022-09-20T01:31:26.272Z,101788.47
2022-09-20T01:34:03.466Z,101788.41
2022-09-20T01:36:42.070Z,101805.06
2022-09-20T01:39:24.087Z,101801.44
2022-09-20T01:41:59.621Z,101795.13
2022-09-20T01:44:36.844Z,101800.28
2022-09-20T01:47:23.028Z,101799.28
2022-09-20T01:50:07.792Z,101797.50
2022-09-20T01:52:45.685Z,101773.63
2022-09-20T01:55:28.573Z,101792.28
2022-09-20T01:58:20.150Z,101792.25
2022-09-20T02:01:14.721Z,101797.41
2022-09-20T02:03:54.240Z,101786.78
2022-09-20T02:06:49.598Z,101800.84
2022-09-20T02:09:38.686Z,101793.72
2022-09-20T02:12:11.916Z,101781.38
2022-09-20T02:14:57.767Z,101789.41
2022-09-20T02:17:59.398Z,101782.31
2022-09-20T02:20:52.433Z,101780.53
2022-09-20T02:23:35.806Z,101781.28
2022-09-20T02:26:29.944Z,101775.13
2022-09-20T02:29:00.131Z,101780.31
2022-09-20T02:31:56.723Z,101789.88
2022-09-20T02:34:57.782Z,101763.16
2022-09-20T02:37:48.888Z,101786.97
2022-09-20T02:40:44.076Z,101794.03
2022-09-20T02:43:26.849Z,101790.38
2022-09-20T02:46:11.789Z,101790.19
2022-09-20T02:49:19.531Z,101788.50
2022-09-20T02:51:56.466Z,101797.16
2022-09-20T02:54:30.212Z,101795.38
2022-09-20T02:57:06.372Z,101781.44
2022-09-20T02:59:46.038Z,101788.31
2022-09-20T03:02:46.573Z,101774.25
2022-09-20T03:05:24.260Z,101781.25
2022-09-20T03:07:58.760Z,101771.31
2022-09-20T03:10:32.663Z,101774.84
2022-09-20T03:13:24.420Z,101783.59
2022-09-20T03:16:04.771Z,101780.78
2022-09-20T03:18:48.510Z,101782.47
2022-09-20T03:21:19.112Z,101785.13
2022-09-20T03:23:55.918Z,101778.69
2022-09-20T03:26:58.941Z,101777.72
2022-09-20T03:29:37.223Z,101778.47
2022-09-20T03:32:21.904Z,101770.66
2022-09-20T03:35:14.891Z,101779.47
2022-09-20T03:38:02.110Z,101758.97
2022-09-20T03:40:32.366Z,101775.56
2022-09-20T03:43:38.850Z,101765.03
2022-09-20T03:46:17.028Z,101769.47
2022-09-20T03:48:55.093Z,101764.88
2022-09-20T03:51:53.000Z,101770.91
2022-09-20T03:54:54.496Z,101770.13
2022-09-20T03:57:31.435Z,101767.19
2022-09-20T04:00:15.053Z,101773.31
2022-09-20T04:02:55.109Z,101761.66
2022-09-20T04:05:47.569Z,101781.09
2022-09-20T04:08:25.322Z,101782.78
2022-09-20T04:11:18.463Z,101779.22
2022-09-20T04:14:10.633Z,101774.69
2022-09-20T04:17:23.332Z,101779.06
2022-09-20T04:20:02.493Z,101785.16
2022-09-20T04:22:31.088Z,101774.38
2022-09-20T04:25:10.087Z,101776.22
2022-09-20T04:27:47.103Z,101773.44
2022-09-20T04:30:30.708Z,101768.19
2022-09-20T04:33:14.056Z,101775.91
2022-09-20T04:35:59.786Z,101782.13
2022-09-20T04:38:27.700Z,101770.66
2022-09-20T04:41:13.243Z,101782.22
2022-09-20T04:44:09.786Z,101788.19
2022-09-20T04:46:55.878Z,101793.38
2022-09-20T04:49:48.481Z,101792.59
2022-09-20T04:52:34.890Z,101795.16
2022-09-20T04:55:32.721Z,101794.88
2022-09-20T04:58:27.976Z,101806.25
2022-09-20T05:01:17.022Z,101802.63
2022-09-20T05:04:16.262Z,101802.84
2022-09-20T05:07:27.271Z,101810.66
2022-09-20T05:09:57.539Z,101797.22
2022-09-20T05:12:42.490Z,101805.09
2022-09-20T05:15:36.550Z,101788.06
2022-09-20T05:18:24.719Z,101808.34
2022-09-20T05:21:09.930Z,101791.97
2022-09-20T05:23:49.436Z,101813.34
2022-09-20T05:26:39.104Z,101809.03
2022-09-20T05:29:44.166Z,101820.34
2022-09-20T05:32:43.780Z,101822.97
2022-09-20T05:35:25.624Z,101809.53
2022-09-20T05:38:05.763Z,101828.75
2022-09-20T05:41:07.355Z,101832.25
2022-09-20T05:43:43.280Z,101818.84
2022-09-20T05:46:27.838Z,101814.31
2022-09-20T05:49:32.545Z,101833.81
2022-09-20T05:52:24.925Z,101835.47
2022-09-20T05:55:12.341Z,101839.94
2022-09-20T05:58:01.610Z,101841.72
2022-09-20T06:00:42.195Z,101843.44
2022-09-20T06:03:30.775Z,101809.88
2022-09-20T06:06:01.331Z,101845.94
2022-09-20T06:09:02.564Z,101849.63
2022-09-20T06:11:42.053Z,101846.91
2022-09-20T06:14:22.049Z,101850.47
2022-09-20T06:17:24.668Z,101853.91
2022-09-20T06:20:19.004Z,101849.72
2022-09-20T06:22:57.535Z,101865.47
2022-09-20T06:25:43.269Z,101874.16
2022-09-20T06:28:31.900Z,101867.22
2022-09-20T06:30:59.429Z,101867.81
2022-09-20T06:33:28.675Z,101873.34
2022-09-20T06:36:29.612Z,101876.06
2022-09-20T06:39:39.465Z,101855.91
2022-09-20T06:42:07.123Z,101843.56
2022-09-20T06:44:34.145Z,101875.53
2022-09-20T06:47:01.930Z,101870.56
2022-09-20T06:49:29.412Z,101869.28
2022-09-20T06:51:56.838Z,101877.38
2022-09-20T06:54:24.194Z,101875.75
2022-09-20T06:56:51.907Z,101875.78
2022-09-20T06:59:19.073Z,101869.69
2022-09-20T07:01:46.138Z,101870.06
2022-09-20T07:04:13.347Z,101868.41
2022-09-20T07:06:40.830Z,101856.03
2022-09-20T07:09:08.657Z,101863.44
2022-09-20T07:11:35.832Z,101869.78
2022-09-20T07:14:03.562Z,101857.31
2022-09-20T07:16:30.772Z,101864.75
2022-09-20T07:18:58.026Z,101874.81
2022-09-20T07:21:25.184Z,101855.19
2022-09-20T07:23:54.199Z,101860.69
2022-09-20T07:26:28.574Z,101865.06
2022-09-20T07:28:57.704Z,101856.28
2022-09-20T07:31:26.604Z,101877.69
2022-09-20T07:33:54.046Z,101878.66
2022-09-20T07:36:21.589Z,101870.03
2022-09-20T07:38:50.580Z,101873.59
2022-09-20T07:41:23.169Z,101875.25
2022-09-20T07:43:51.314Z,101877.31
2022-09-20T07:46:22.358Z,101864.94
2022-09-20T07:48:49.620Z,101876.91
2022-09-20T07:51:16.865Z,101891.06
2022-09-20T07:53:43.969Z,101885.13
2022-09-20T07:56:13.926Z,101872.13
2022-09-20T07:58:42.157Z,101887.53
2022-09-20T08:01:11.739Z,101889.47
2022-09-20T08:03:39.424Z,101873.84
2022-09-20T08:06:11.810Z,101895.16
2022-09-20T08:08:40.818Z,101876.66
2022-09-20T08:11:08.961Z,101878.72
2022-09-20T08:16:31.332Z,101886.53
2022-09-20T08:19:03.046Z,101878.78
2022-09-20T08:21:34.945Z,101881.66
2022-09-20T08:24:04.170Z,101885.53
2022-09-20T08:26:31.858Z,101880.63
2022-09-20T08:29:00.393Z,101886.97
2022-09-20T08:31:34.595Z,101880.94
2022-09-20T08:34:05.153Z,101880.34
2022-09-20T08:36:36.815Z,101883.25
2022-09-20T08:42:19.086Z,101891.75
2022-09-20T08:44:57.752Z,101892.13
2022-09-20T08:47:36.026Z,101885.09
2022-09-20T08:50:10.074Z,101879.16
2022-09-20T08:52:40.351Z,101887.31
2022-09-20T08:55:20.344Z,101874.28
2022-09-20T08:57:53.960Z,101879.84
2022-09-20T09:00:29.794Z,101879.03
2022-09-20T09:02:59.442Z,101885.41
2022-09-20T09:05:31.729Z,101887.34
2022-09-20T09:08:04.638Z,101882.94
2022-09-20T09:10:42.682Z,101868.06
2022-09-20T09:13:22.610Z,101887.63
2022-09-20T09:15:57.148Z,101879.16
2022-09-20T09:18:32.429Z,101874.19
2022-09-20T09:21:00.858Z,101870.69
2022-09-20T09:23:28.171Z,101860.19
2022-09-20T09:25:56.230Z,101885.91
2022-09-20T09:28:26.062Z,101861.19
2022-09-20T09:30:53.249Z,101876.31
2022-09-20T09:33:20.347Z,101882.56
2022-09-20T09:35:59.867Z,101854.28
2022-09-20T09:38:32.414Z,101871.47
2022-09-20T09:41:05.664Z,101843.41
2022-09-20T09:43:35.616Z,101864.63
2022-09-20T09:46:26.752Z,101866.41
2022-09-20T09:49:13.202Z,101847.03
2022-09-20T09:51:43.475Z,101863.03
2022-09-20T09:54:19.995Z,101872.00
2022-09-20T09:57:09.004Z,101877.28
2022-09-20T09:59:49.568Z,101865.91
2022-09-20T10:02:26.561Z,101865.91
2022-09-20T10:05:31.701Z,101865.06
2022-09-20T10:08:23.721Z,101864.16
2022-09-20T10:11:21.643Z,101859.00
2022-09-20T10:14:03.731Z,101844.03
2022-09-20T10:16:59.922Z,101845.97
2022-09-20T10:19:51.971Z,101859.25
2022-09-20T10:22:38.193Z,101832.81
2022-09-20T10:25:26.443Z,101853.13
2022-09-20T10:28:16.265Z,101834.59
2022-09-20T10:31:01.262Z,101848.75
2022-09-20T10:33:43.728Z,101847.03
2022-09-20T10:36:43.912Z,101854.97
2022-09-20T10:39:18.208Z,101839.06
2022-09-20T10:42:29.967Z,101844.34
2022-09-20T10:45:44.100Z,101842.56
2022-09-20T10:48:18.802Z,101839.88
2022-09-20T10:50:52.500Z,101835.41
2022-09-20T10:53:56.159Z,101830.94
2022-09-20T10:56:43.810Z,101829.19
2022-09-20T10:59:18.285Z,101834.44
2022-09-20T11:02:15.308Z,101834.34
2022-09-20T11:04:54.312Z,101812.22
2022-09-20T11:08:03.234Z,101828.84
2022-09-20T11:10:38.115Z,101824.41
2022-09-20T11:13:30.931Z,101827.88
2022-09-20T11:16:18.385Z,101825.16
2022-09-20T11:19:01.857Z,101826.78
2022-09-20T11:21:40.868Z,101809.88
2022-09-20T11:24:33.290Z,101804.44
2022-09-20T11:27:11.307Z,101816.75
2022-09-20T11:29:50.614Z,101784.09
2022-09-20T11:32:39.688Z,101816.56
2022-09-20T11:35:14.294Z,101813.22
2022-09-20T11:37:49.519Z,101811.25
2022-09-20T11:40:27.109Z,101817.31
2022-09-20T11:43:00.851Z,101804.56
2022-09-20T11:45:32.780Z,101796.63
2022-09-20T11:48:14.701Z,101810.84
2022-09-20T11:51:23.563Z,101808.94
2022-09-20T11:53:59.474Z,101805.47
2022-09-20T11:56:31.158Z,101815.03
2022-09-20T11:59:04.085Z,101797.31
2022-09-20T12:01:43.105Z,101787.47
2022-09-20T12:04:32.415Z,101793.47
2022-09-20T12:07:18.591Z,101784.53
2022-09-20T12:09:59.184Z,101792.56
2022-09-20T12:12:29.038Z,101785.34
2022-09-20T12:14:59.228Z,101787.97
2022-09-20T12:17:47.853Z,101790.53
2022-09-20T12:20:34.493Z,101783.28
2022-09-20T12:23:38.593Z,101783.91
2022-09-20T12:26:14.253Z,101788.13
2022-09-20T12:28:42.570Z,101791.59
2022-09-20T12:31:19.309Z,101789.50
2022-09-20T12:34:00.560Z,101770.72
2022-09-20T12:36:36.351Z,101766.16
2022-09-20T12:39:21.857Z,101777.09
2022-09-20T12:42:03.606Z,101775.31
2022-09-20T12:44:42.118Z,101772.78
2022-09-20T12:47:12.339Z,101776.22
2022-09-20T12:50:09.367Z,101759.53
2022-09-20T12:52:57.886Z,101760.25
2022-09-20T12:55:27.965Z,101761.97
2022-09-20T12:57:59.231Z,101755.59
2022-09-20T13:00:36.864Z,101750.09
2022-09-20T13:03:13.361Z,101751.94
2022-09-20T13:05:47.894Z,101753.75
2022-09-20T13:08:21.158Z,101742.38
2022-09-20T13:11:02.542Z,101755.69
2022-09-20T13:13:36.487Z,101747.53
2022-09-20T13:16:07.497Z,101751.97
2022-09-20T13:18:36.614Z,101729.94
2022-09-20T13:21:07.391Z,101722.91
2022-09-20T13:23:52.531Z,101738.66
2022-09-20T13:26:27.869Z,101731.38
2022-09-20T13:28:59.322Z,101725.94
2022-09-20T13:31:29.963Z,101726.00
2022-09-20T13:34:23.095Z,101733.19
2022-09-20T13:36:56.380Z,101719.16
2022-09-20T13:39:35.583Z,101723.47
2022-09-20T13:42:08.761Z,101719.81
2022-09-20T13:44:37.557Z,101705.78
2022-09-20T13:47:23.601Z,101710.00
2022-09-20T13:49:50.929Z,101705.53
2022-09-20T13:52:24.876Z,101711.75
2022-09-20T13:54:52.068Z,101706.50
2022-09-20T13:57:26.616Z,101699.56
2022-09-20T13:59:59.716Z,101699.47
2022-09-20T14:02:32.576Z,101695.09
2022-09-20T14:05:02.410Z,101694.16
2022-09-20T14:07:31.223Z,101681.97
2022-09-20T14:09:59.193Z,101694.19
2022-09-20T14:12:28.420Z,101686.03
2022-09-20T14:14:56.139Z,101679.84
2022-09-20T14:17:24.895Z,101681.50
2022-09-20T14:19:58.529Z,101670.16
2022-09-20T14:22:30.032Z,101677.06
2022-09-20T14:25:25.651Z,101688.81
2022-09-20T14:28:19.222Z,101679.78
2022-09-20T14:30:48.834Z,101676.03
2022-09-20T14:33:19.867Z,101682.16
2022-09-20T14:35:52.255Z,101680.44
2022-09-20T14:38:24.974Z,101676.66
2022-09-20T14:40:53.509Z,101671.69
2022-09-20T14:43:24.743Z,101676.22
2022-09-20T14:46:02.365Z,101678.88
2022-09-20T14:48:36.575Z,101680.91
2022-09-20T14:51:16.527Z,101682.59
2022-09-20T14:53:48.708Z,101676.44
2022-09-20T14:56:27.231Z,101675.69
2022-09-20T14:59:09.042Z,101659.94
2022-09-20T15:01:41.285Z,101645.16
2022-09-20T15:04:21.849Z,101670.38
2022-09-20T15:06:51.892Z,101672.16
2022-09-20T15:09:20.998Z,101660.59
2022-09-20T15:12:02.614Z,101659.84
2022-09-20T15:14:33.839Z,101665.09
2022-09-20T15:17:04.657Z,101660.81
2022-09-20T15:19:31.993Z,101661.59
2022-09-20T15:21:59.792Z,101660.81
2022-09-20T15:24:27.188Z,101629.97
2022-09-20T15:26:54.440Z,101645.66
2022-09-20T15:29:22.555Z,101643.25
2022-09-20T15:31:49.997Z,101647.66
2022-09-20T15:34:17.379Z,101645.75
2022-09-20T15:36:44.882Z,101650.22
2022-09-20T15:39:12.505Z,101640.59
2022-09-20T15:41:40.275Z,101639.81
2022-09-20T15:44:08.275Z,101650.34
2022-09-20T15:46:35.640Z,101642.44
2022-09-20T15:49:07.110Z,101644.25
2022-09-20T15:51:35.607Z,101637.19
2022-09-20T15:54:06.478Z,101640.41
2022-09-20T15:56:36.586Z,101637.97
2022-09-20T15:59:05.816Z,101639.78
2022-09-20T16:01:39.967Z,101640.63
2022-09-20T16:04:12.363Z,101634.53
2022-09-20T16:06:42.388Z,101646.13
2022-09-20T16:09:10.029Z,101643.56
2022-09-20T16:11:37.305Z,101649.84
2022-09-20T16:14:05.328Z,101651.72
2022-09-20T16:16:39.675Z,101648.06
2022-09-20T16:19:24.117Z,101649.94
2022-09-20T16:21:58.105Z,101649.28
2022-09-20T16:24:31.439Z,101640.56
2022-09-20T16:27:03.887Z,101650.38
2022-09-20T16:29:38.752Z,101653.13
2022-09-20T16:32:10.208Z,101651.25
2022-09-20T16:34:39.451Z,101642.41
2022-09-20T16:37:18.978Z,101648.75
2022-09-20T16:39:49.679Z,101648.09
2022-09-20T16:42:19.350Z,101650.78
2022-09-20T16:44:52.008Z,101655.28
2022-09-20T16:47:26.569Z,101659.00
2022-09-20T16:49:55.366Z,101653.72
2022-09-20T16:52:26.610Z,101638.09
2022-09-20T16:54:55.519Z,101646.22
2022-09-20T16:57:28.773Z,101657.75
2022-09-20T16:59:57.733Z,101634.88
2022-09-20T17:02:27.435Z,101650.84
2022-09-20T17:04:55.757Z,101658.06
2022-09-20T17:07:35.182Z,101665.19
2022-09-20T17:10:04.606Z,101662.56
2022-09-20T17:12:34.913Z,101661.97
2022-09-20T17:15:05.927Z,101657.59
2022-09-20T17:17:35.721Z,101665.59
2022-09-20T17:20:10.895Z,101669.06
2022-09-20T17:22:42.605Z,101671.06
2022-09-20T17:25:14.118Z,101673.78
2022-09-20T17:27:44.041Z,101665.09
2022-09-20T17:30:15.274Z,101663.31
2022-09-20T17:32:51.189Z,101656.44
2022-09-20T17:35:20.137Z,101670.63
2022-09-20T17:37:48.771Z,101684.94
2022-09-20T17:40:17.671Z,101674.44
2022-09-20T17:42:52.529Z,101678.91
2022-09-20T17:45:30.427Z,101671.03
2022-09-20T17:48:10.509Z,101679.97
2022-09-20T17:50:51.071Z,101680.00
2022-09-20T17:53:24.769Z,101692.50
2022-09-20T17:56:05.425Z,101696.13
2022-09-20T17:58:44.679Z,101702.41
2022-09-20T18:01:26.425Z,101697.19
2022-09-20T18:04:04.347Z,101699.00
2022-09-20T18:06:46.643Z,101695.50
2022-09-20T18:09:18.313Z,101701.75
2022-09-20T18:11:57.587Z,101670.94
2022-09-20T18:14:35.597Z,101697.47
2022-09-20T18:17:09.272Z,101704.59
2022-09-20T18:19:38.472Z,101701.13
2022-09-20T18:22:12.010Z,101712.63
2022-09-20T18:24:40.719Z,101717.94
2022-09-20T18:27:08.762Z,101713.53
2022-09-20T18:29:39.490Z,101717.09
2022-09-20T18:32:13.621Z,101722.44
2022-09-20T18:34:42.177Z,101708.34
2022-09-20T18:37:14.824Z,101729.53
2022-09-20T18:39:48.100Z,101713.66
2022-09-20T18:42:20.168Z,101730.44
2022-09-20T18:44:50.292Z,101731.34
2022-09-20T18:47:21.169Z,101732.22
2022-09-20T18:49:51.760Z,101719.88
2022-09-20T18:52:39.458Z,101738.44
2022-09-20T18:55:10.764Z,101720.75
2022-09-20T18:57:39.055Z,101731.38
2022-09-20T19:00:08.287Z,101739.28
2022-09-20T19:03:44.730Z,101741.06
2022-09-20T19:06:14.380Z,101745.44
2022-09-20T19:09:01.987Z,101737.50
2022-09-20T19:11:40.134Z,101741.03
2022-09-20T19:14:35.591Z,101748.09
2022-09-20T19:17:12.492Z,101760.44
2022-09-20T19:19:59.276Z,101764.84
2022-09-20T19:22:50.558Z,101764.81
2022-09-20T19:25:33.826Z,101763.91
2022-09-20T19:28:12.286Z,101771.81
2022-09-20T19:30:53.001Z,101773.56
2022-09-20T19:33:30.665Z,101775.22
2022-09-20T19:36:07.721Z,101773.41
2022-09-20T19:39:10.679Z,101791.94
2022-09-20T19:42:10.840Z,101791.91
2022-09-20T19:45:04.262Z,101800.69
2022-09-20T19:48:01.818Z,101800.66
2022-09-20T19:50:46.819Z,101790.91
2022-09-20T19:53:24.250Z,101794.41
2022-09-20T19:56:05.056Z,101773.25
2022-09-20T19:58:38.794Z,101797.03
2022-09-20T20:01:10.197Z,101775.88
2022-09-20T20:03:41.942Z,101804.09
2022-09-20T20:06:24.174Z,101808.50
2022-09-20T20:09:11.030Z,101814.69
2022-09-20T20:11:53.672Z,101816.41
2022-09-20T20:14:41.896Z,101823.41
2022-09-20T20:17:46.859Z,101816.28
2022-09-20T20:20:39.119Z,101822.34
2022-09-20T20:23:39.859Z,101832.94
2022-09-20T20:26:23.736Z,101818.75
2022-09-20T20:28:53.219Z,101832.91
2022-09-20T20:31:24.361Z,101837.34
2022-09-20T20:33:55.399Z,101835.50
2022-09-20T20:36:28.685Z,101839.88
2022-09-20T20:38:57.222Z,101838.09
2022-09-20T20:41:25.236Z,101832.78
2022-09-20T20:43:57.750Z,101830.97
2022-09-20T20:46:28.046Z,101841.56
2022-09-20T20:48:56.509Z,101844.13
2022-09-20T20:51:25.218Z,101828.19
2022-09-20T20:53:57.465Z,101844.00
2022-09-20T20:56:28.685Z,101848.34
2022-09-20T20:59:02.683Z,101846.56
2022-09-20T21:01:32.714Z,101816.34
2022-09-20T21:04:01.682Z,101843.78
2022-09-20T21:06:32.699Z,101848.13
2022-09-20T21:09:00.756Z,101844.59
2022-09-20T21:11:31.519Z,101854.28
2022-09-20T21:14:01.200Z,101841.94
2022-09-20T21:16:31.881Z,101860.41
2022-09-20T21:18:59.679Z,101858.53
2022-09-20T21:21:31.158Z,101853.16
2022-09-20T21:24:02.376Z,101851.25
2022-09-20T21:26:35.243Z,101860.94
2022-09-20T21:29:05.507Z,101846.72
2022-09-20T21:31:39.341Z,101860.78
2022-09-20T21:34:07.934Z,101857.22
2022-09-20T21:36:37.223Z,101859.91
2022-09-20T21:39:06.101Z,101852.78
2022-09-20T21:41:36.185Z,101853.59
2022-09-20T21:44:05.588Z,101817.31
2022-09-20T21:46:35.722Z,101852.59
2022-09-20T21:49:05.531Z,101852.59
2022-09-20T21:51:34.290Z,101840.16
2022-09-20T21:54:05.282Z,101842.91
2022-09-20T21:56:36.424Z,101842.88
2022-09-20T21:59:06.481Z,101850.69
2022-09-20T22:01:39.619Z,101842.94
2022-09-20T22:04:12.020Z,101850.81
2022-09-20T22:06:41.864Z,101850.72
2022-09-20T22:09:14.328Z,101826.69
2022-09-20T22:11:47.207Z,101846.94
2022-09-20T22:14:16.786Z,101827.44
2022-09-20T22:16:45.681Z,101844.13
2022-09-20T22:19:15.374Z,101851.09
2022-09-20T22:21:45.197Z,101850.13
2022-09-20T22:24:14.093Z,101842.19
2022-09-20T22:26:45.096Z,101838.66
2022-09-20T22:29:13.281Z,101850.03
2022-09-20T22:31:45.816Z,101856.13
2022-09-20T22:34:21.998Z,101826.94
2022-09-20T22:36:49.912Z,101835.72
2022-09-20T22:39:17.661Z,101835.75
2022-09-20T22:41:48.309Z,101852.44
2022-09-20T22:44:15.999Z,101858.63
2022-09-20T22:46:46.780Z,101831.94
2022-09-20T22:49:14.748Z,101838.16
2022-09-20T22:51:42.528Z,101853.19
2022-09-20T22:54:12.491Z,101839.91
2022-09-20T22:56:42.734Z,101839.88
2022-09-20T22:59:13.097Z,101853.84
2022-09-20T23:01:43.232Z,101854.63
2022-09-20T23:04:17.029Z,101853.72
2022-09-20T23:06:53.965Z,101848.47
2022-09-20T23:09:27.585Z,101852.69
2022-09-20T23:11:55.018Z,101862.19
2022-09-20T23:14:23.047Z,101858.69
2022-09-20T23:16:50.350Z,101843.69
2022-09-20T23:19:17.766Z,101852.50
2022-09-20T23:21:45.546Z,101844.38
2022-09-20T23:24:14.727Z,101854.91
2022-09-20T23:26:43.496Z,101849.44
2022-09-20T23:29:12.944Z,101859.94
2022-09-20T23:31:45.772Z,101861.63
2022-09-20T23:34:13.368Z,101854.47
2022-09-20T23:36:41.364Z,101852.66
2022-09-20T23:39:10.353Z,101857.78
2022-09-20T23:41:38.372Z,101860.34
2022-09-20T23:44:06.870Z,101845.13
2022-09-20T23:46:34.837Z,101854.91
2022-09-20T23:49:02.541Z,101856.72
2022-09-20T23:51:31.053Z,101857.59
2022-09-20T23:53:58.593Z,101853.16
2022-09-20T23:56:26.614Z,101848.66
2022-09-20T23:58:54.355Z,101856.47
